createdAt,value
2022-12-17T00:04:14.781Z,372.73
2022-12-17T00:09:21.921Z,372.12
2022-12-17T00:14:29.131Z,371.97
2022-12-17T00:19:36.346Z,371.85
2022-12-17T00:24:43.682Z,371.28
2022-12-17T00:29:50.774Z,370.81
2022-12-17T00:34:57.926Z,369.88
2022-12-17T00:40:05.144Z,369.66
2022-12-17T00:45:12.369Z,368.95
2022-12-17T00:50:19.596Z,368.54
2022-12-17T00:55:26.810Z,367.55
2022-12-17T01:00:34.083Z,366.63
2022-12-17T01:05:41.268Z,365.95
2022-12-17T01:10:48.478Z,365.63
2022-12-17T01:15:56.647Z,364.93
2022-12-17T01:21:02.860Z,364.57
2022-12-17T01:26:10.110Z,363.65
2022-12-17T01:31:17.586Z,363.13
2022-12-17T01:36:24.654Z,362.48
2022-12-17T01:41:31.903Z,362.09
2022-12-17T01:46:39.078Z,361.86
2022-12-17T01:51:46.321Z,361.69
2022-12-17T01:56:53.632Z,361.24
2022-12-17T02:02:01.058Z,360.65
2022-12-17T02:07:08.078Z,360.26
2022-12-17T02:12:15.263Z,360.45
2022-12-17T02:17:22.431Z,360.26
2022-12-17T02:22:29.650Z,360.12
2022-12-17T02:27:36.862Z,359.82
2022-12-17T02:32:44.324Z,360.30
2022-12-17T02:37:51.562Z,360.12
2022-12-17T02:42:58.875Z,360.16
2022-12-17T02:48:05.910Z,359.87
2022-12-17T02:53:13.201Z,359.89
2022-12-17T02:58:20.400Z,359.52
2022-12-17T03:03:27.741Z,358.79
2022-12-17T03:08:34.765Z,358.46
2022-12-17T03:13:42.017Z,358.16
2022-12-17T03:18:49.177Z,357.90
2022-12-17T03:23:56.461Z,357.41
2022-12-17T03:29:03.657Z,357.02
2022-12-17T03:34:10.783Z,357.13
2022-12-17T03:39:17.981Z,357.02
2022-12-17T03:44:25.235Z,357.09
2022-12-17T03:49:32.394Z,356.91
2022-12-17T03:54:39.603Z,356.88
2022-12-17T03:59:46.835Z,356.47
2022-12-17T04:04:54.019Z,355.88
2022-12-17T04:10:01.240Z,355.63
2022-12-17T04:15:08.441Z,355.21
2022-12-17T04:20:15.624Z,354.83
2022-12-17T04:25:22.833Z,354.43
2022-12-17T04:30:30.057Z,354.35
2022-12-17T04:35:37.241Z,353.81
2022-12-17T04:40:44.426Z,352.80
2022-12-17T04:45:51.769Z,352.28
2022-12-17T04:50:58.862Z,351.42
2022-12-17T04:56:06.019Z,350.93
2022-12-17T05:01:13.445Z,350.09
2022-12-17T05:06:20.471Z,350.12
2022-12-17T05:11:27.694Z,350.38
2022-12-17T05:16:34.876Z,350.05
2022-12-17T05:21:42.098Z,349.42
2022-12-17T05:26:49.298Z,349.12
2022-12-17T05:31:56.567Z,348.97
2022-12-17T05:37:03.724Z,348.73
2022-12-17T05:42:10.912Z,347.97
2022-12-17T05:47:18.144Z,348.00
2022-12-17T05:52:25.325Z,347.68
2022-12-17T05:57:32.510Z,347.35
2022-12-17T06:02:39.886Z,346.88
2022-12-17T06:07:46.919Z,346.19
2022-12-17T06:12:54.137Z,346.23
2022-12-17T06:18:01.380Z,345.53
2022-12-17T06:23:08.546Z,345.13
2022-12-17T06:28:15.767Z,344.58
2022-12-17T06:33:22.980Z,344.22
2022-12-17T06:38:30.178Z,343.81
2022-12-17T06:43:37.658Z,343.74
2022-12-17T06:48:44.596Z,343.44
2022-12-17T06:53:51.758Z,342.63
2022-12-17T06:58:58.965Z,341.98
2022-12-17T07:04:06.213Z,341.36
2022-12-17T07:09:13.383Z,341.02
2022-12-17T07:14:20.580Z,340.80
2022-12-17T07:19:27.931Z,340.86
2022-12-17T07:24:34.971Z,340.60
2022-12-17T07:29:42.202Z,339.52
2022-12-17T07:34:49.378Z,339.21
2022-12-17T07:39:56.597Z,338.57
2022-12-17T07:45:03.805Z,338.15
2022-12-17T07:50:11.055Z,337.46
2022-12-17T07:55:18.559Z,337.38
2022-12-17T08:00:25.507Z,336.92
2022-12-17T08:05:32.650Z,336.38
2022-12-17T08:10:39.861Z,335.18
2022-12-17T08:15:47.056Z,334.63
2022-12-17T08:20:54.259Z,333.84
2022-12-17T08:26:01.450Z,333.59
2022-12-17T08:31:08.732Z,333.29
2022-12-17T08:36:15.845Z,333.21
2022-12-17T08:41:23.061Z,332.41
2022-12-17T08:46:30.309Z,331.62
2022-12-17T08:51:37.528Z,331.37
2022-12-17T08:56:44.658Z,331.62
2022-12-17T09:01:52.011Z,330.71
2022-12-17T09:06:59.077Z,329.85
2022-12-17T09:12:06.234Z,329.62
2022-12-17T09:17:13.488Z,329.06
2022-12-17T09:22:20.749Z,328.09
2022-12-17T09:27:28.009Z,327.33
2022-12-17T09:32:35.195Z,327.20
2022-12-17T09:37:42.463Z,326.69
2022-12-17T09:42:52.495Z,326.38
2022-12-17T09:47:56.852Z,326.05
2022-12-17T09:53:04.063Z,325.45
2022-12-17T09:58:11.260Z,325.64
2022-12-17T10:03:18.513Z,325.68
2022-12-17T10:08:25.735Z,326.06
2022-12-17T10:13:33.042Z,326.52
2022-12-17T10:18:40.116Z,327.35
2022-12-17T10:23:47.323Z,327.02
2022-12-17T10:28:54.537Z,327.39
2022-12-17T10:34:01.768Z,327.59
2022-12-17T10:39:09.012Z,328.19
2022-12-17T10:44:16.234Z,327.64
2022-12-17T10:49:23.386Z,327.82
2022-12-17T10:54:30.567Z,327.36
2022-12-17T10:59:37.697Z,327.00
2022-12-17T11:04:44.872Z,327.73
2022-12-17T11:09:52.124Z,327.74
2022-12-17T11:14:59.311Z,328.06
2022-12-17T11:20:06.534Z,327.85
2022-12-17T11:25:13.756Z,327.98
2022-12-17T11:30:23.159Z,328.10
2022-12-17T11:35:28.125Z,327.90
2022-12-17T11:40:35.496Z,327.85
2022-12-17T11:45:42.530Z,328.25
2022-12-17T11:50:49.737Z,328.69
2022-12-17T11:55:56.950Z,328.48
2022-12-17T12:01:04.118Z,328.05
2022-12-17T12:06:11.318Z,327.22
2022-12-17T12:11:18.608Z,327.69
2022-12-17T12:16:25.977Z,327.20
2022-12-17T12:21:33.069Z,327.52
2022-12-17T12:26:40.295Z,326.71
2022-12-17T12:31:47.618Z,326.71
2022-12-17T12:36:54.739Z,326.98
2022-12-17T12:42:01.922Z,327.28
2022-12-17T12:47:09.116Z,327.60
2022-12-17T12:52:16.355Z,327.69
2022-12-17T12:57:23.611Z,327.35
2022-12-17T13:02:30.969Z,327.29
2022-12-17T13:07:38.025Z,327.08
2022-12-17T13:12:45.259Z,327.32
2022-12-17T13:17:52.435Z,326.93
2022-12-17T13:22:59.647Z,327.30
2022-12-17T13:28:06.912Z,326.76
2022-12-17T13:33:14.056Z,325.92
2022-12-17T13:38:21.288Z,325.78
2022-12-17T13:43:28.467Z,324.79
2022-12-17T13:48:36.079Z,324.34
2022-12-17T13:53:42.867Z,324.00
2022-12-17T13:58:51.242Z,324.04
2022-12-17T14:04:06.312Z,323.93
2022-12-17T14:09:04.562Z,323.92
2022-12-17T14:14:11.840Z,323.19
2022-12-17T14:19:18.994Z,323.33
2022-12-17T14:24:26.194Z,322.65
2022-12-17T14:29:33.437Z,321.76
2022-12-17T14:34:40.620Z,321.27
2022-12-17T14:39:47.827Z,320.22
2022-12-17T14:44:55.043Z,319.95
2022-12-17T14:50:02.331Z,320.20
2022-12-17T14:55:09.549Z,320.39
2022-12-17T15:00:16.818Z,321.13
2022-12-17T15:05:23.947Z,321.36
2022-12-17T15:10:31.172Z,321.20
2022-12-17T15:15:38.379Z,320.77
2022-12-17T15:20:45.554Z,319.76
2022-12-17T15:25:52.972Z,319.87
2022-12-17T15:31:00.421Z,319.58
2022-12-17T15:36:08.550Z,318.90
2022-12-17T15:41:16.007Z,319.55
2022-12-17T15:46:23.701Z,319.12
2022-12-17T15:51:31.232Z,318.96
2022-12-17T15:56:38.551Z,319.27
2022-12-17T16:01:45.880Z,318.34
2022-12-17T16:06:53.184Z,317.95
2022-12-17T16:12:00.766Z,318.12
2022-12-17T16:17:08.518Z,317.91
2022-12-17T16:22:15.936Z,317.77
2022-12-17T16:27:23.194Z,317.76
2022-12-17T16:32:36.142Z,317.66
2022-12-17T16:37:37.635Z,317.90
2022-12-17T16:42:44.806Z,317.74
2022-12-17T16:47:52.138Z,317.16
2022-12-17T16:52:59.530Z,317.53
2022-12-17T16:58:07.149Z,317.11
2022-12-17T17:03:15.027Z,316.80
2022-12-17T17:08:22.092Z,317.22
2022-12-17T17:13:29.266Z,317.21
2022-12-17T17:18:36.513Z,316.49
2022-12-17T17:23:43.775Z,316.12
2022-12-17T17:28:50.990Z,315.99
2022-12-17T17:33:58.236Z,315.36
2022-12-17T17:39:05.363Z,315.05
2022-12-17T17:44:12.601Z,314.97
2022-12-17T17:49:19.792Z,314.50
2022-12-17T17:54:27.033Z,314.76
2022-12-17T17:59:34.641Z,313.75
2022-12-17T18:04:41.484Z,313.60
2022-12-17T18:09:48.669Z,312.91
2022-12-17T18:15:14.879Z,313.33
2022-12-17T18:20:03.213Z,312.81
2022-12-17T18:25:10.353Z,312.18
2022-12-17T18:30:17.878Z,312.05
2022-12-17T18:35:25.110Z,311.55
2022-12-17T18:40:33.626Z,312.04
2022-12-17T18:45:39.677Z,311.98
2022-12-17T18:50:47.079Z,312.04
2022-12-17T18:55:54.312Z,310.89
2022-12-17T19:01:01.613Z,311.53
2022-12-17T19:06:09.261Z,310.82
2022-12-17T19:11:16.783Z,310.68
2022-12-17T19:16:24.033Z,310.26
2022-12-17T19:21:31.187Z,309.64
2022-12-17T19:26:38.647Z,310.04
2022-12-17T19:31:46.234Z,309.12
2022-12-17T19:36:53.404Z,309.51
2022-12-17T19:42:00.585Z,309.88
2022-12-17T19:47:07.857Z,309.66
2022-12-17T19:52:15.409Z,308.96
2022-12-17T19:57:23.005Z,308.93
2022-12-17T20:02:33.089Z,308.11
2022-12-17T20:07:37.847Z,307.81
2022-12-17T20:12:45.436Z,307.60
2022-12-17T20:17:52.951Z,306.82
2022-12-17T20:23:00.367Z,306.91
2022-12-17T20:28:07.548Z,306.38
2022-12-17T20:33:14.795Z,306.02
2022-12-17T20:38:22.014Z,306.49
2022-12-17T20:43:29.148Z,306.03
2022-12-17T20:48:36.792Z,306.33
2022-12-17T20:53:43.920Z,306.27
2022-12-17T20:58:51.302Z,306.99
2022-12-17T21:03:58.722Z,306.47
2022-12-17T21:09:06.456Z,305.24
2022-12-17T21:14:13.637Z,305.44
2022-12-17T21:19:20.841Z,305.21
2022-12-17T21:24:28.293Z,304.21
2022-12-17T21:29:35.581Z,304.55
2022-12-17T21:34:42.787Z,304.65
2022-12-17T21:39:51.943Z,304.31
2022-12-17T21:44:57.190Z,304.70
2022-12-17T21:50:04.483Z,304.97
2022-12-17T21:55:11.738Z,304.66
2022-12-17T22:00:18.896Z,304.29
2022-12-17T22:05:26.104Z,304.03
2022-12-17T22:10:44.290Z,304.94
2022-12-17T22:15:48.052Z,304.72
2022-12-17T22:20:47.943Z,304.30
2022-12-17T22:25:55.135Z,303.90
2022-12-17T22:31:02.363Z,303.60
2022-12-17T22:37:53.714Z,303.50
2022-12-17T22:44:35.587Z,303.14
2022-12-17T22:46:24.143Z,302.47
2022-12-17T22:51:31.895Z,302.66
2022-12-17T22:56:54.127Z,302.38
2022-12-17T23:01:45.774Z,301.72
2022-12-17T23:06:52.906Z,301.67
2022-12-17T23:12:00.102Z,302.45
2022-12-17T23:17:07.323Z,302.56
2022-12-17T23:22:18.916Z,302.29
2022-12-17T23:27:21.963Z,302.23
2022-12-17T23:32:29.192Z,302.95
2022-12-17T23:37:39.752Z,303.33
2022-12-17T23:42:43.635Z,303.91
2022-12-17T23:47:50.829Z,303.81
2022-12-17T23:52:58.013Z,303.45
2022-12-17T23:58:05.228Z,302.70
